Henley-on-Thames, United Kingdom
Current Conditions -  °F | °C
As of 7:50 AM on Thursday 29 Jan 2015 (Local Time) from EGUB Reporting Station
Clear Clear  
Wind Chill: 26°   Ceiling: Unl
Heat Index: 34°   Visibility: 6mi
Dew Point: 32°   Wind: 10mph
Humidity: 93%   Direction: 220°SW
Pressure: 29.21"   Gusts: NA
Location:  51.53°N, 0.9°W
Report Text: EGUB 290750Z 22009KT CAVOK 01/M00 Q0989 BLU NOSIG
Loading
Personal Weather Stations






























Interactive Weather Map New forecast layout! Learn more

10-Day Weather Forecast

Advertisements
Track Severe Weather on mobile